sensor_id;sensor_type;location;lat;lon;timestamp;temperature;humidity
35796;DHT22;21916;52.428;13.302;2023-05-10T00:01:32;12.00;98.10
35796;DHT22;21916;52.428;13.302;2023-05-10T00:03:58;12.00;98.40
35796;DHT22;21916;52.428;13.302;2023-05-10T00:06:23;12.00;98.80
35796;DHT22;21916;52.428;13.302;2023-05-10T00:08:49;11.90;98.90
35796;DHT22;21916;52.428;13.302;2023-05-10T00:11:15;11.80;99.30
35796;DHT22;21916;52.428;13.302;2023-05-10T00:13:41;11.90;99.80
35796;DHT22;21916;52.428;13.302;2023-05-10T00:16:07;11.80;99.90
35796;DHT22;21916;52.428;13.302;2023-05-10T00:18:33;11.80;99.90
35796;DHT22;21916;52.428;13.302;2023-05-10T00:20:58;11.80;99.90
35796;DHT22;21916;52.428;13.302;2023-05-10T00:23:25;11.70;99.90
35796;DHT22;21916;52.428;13.302;2023-05-10T00:25:50;11.70;99.90
35796;DHT22;21916;52.428;13.302;2023-05-10T00:28:16;11.70;99.90
35796;DHT22;21916;52.428;13.302;2023-05-10T00:30:42;11.70;99.90
35796;DHT22;21916;52.428;13.302;2023-05-10T00:33:08;11.60;99.90
35796;DHT22;21916;52.428;13.302;2023-05-10T00:35:34;11.50;99.90
35796;DHT22;21916;52.428;13.302;2023-05-10T00:38:00;11.50;99.90
35796;DHT22;21916;52.428;13.302;2023-05-10T00:40:25;11.40;99.90
35796;DHT22;21916;52.428;13.302;2023-05-10T00:42:56;11.40;99.90
35796;DHT22;21916;52.428;13.302;2023-05-10T00:45:23;11.40;99.90
35796;DHT22;21916;52.428;13.302;2023-05-10T00:47:50;11.40;99.90
35796;DHT22;21916;52.428;13.302;2023-05-10T00:50:18;11.40;99.90
35796;DHT22;21916;52.428;13.302;2023-05-10T00:52:44;11.30;99.90
35796;DHT22;21916;52.428;13.302;2023-05-10T00:55:11;11.30;99.90
35796;DHT22;21916;52.428;13.302;2023-05-10T00:57:38;11.20;99.90
35796;DHT22;21916;52.428;13.302;2023-05-10T01:00:05;11.20;99.90
35796;DHT22;21916;52.428;13.302;2023-05-10T01:02:31;11.20;99.90
35796;DHT22;21916;52.428;13.302;2023-05-10T01:04:56;11.20;99.90
35796;DHT22;21916;52.428;13.302;2023-05-10T01:07:22;11.30;99.90
35796;DHT22;21916;52.428;13.302;2023-05-10T01:09:48;11.20;99.90
35796;DHT22;21916;52.428;13.302;2023-05-10T01:12:15;11.20;99.90
35796;DHT22;21916;52.428;13.302;2023-05-10T01:14:41;11.20;99.90
35796;DHT22;21916;52.428;13.302;2023-05-10T01:17:07;11.20;99.90
35796;DHT22;21916;52.428;13.302;2023-05-10T01:19:35;11.10;99.90
35796;DHT22;21916;52.428;13.302;2023-05-10T01:34:12;11.20;99.90
35796;DHT22;21916;52.428;13.302;2023-05-10T01:36:52;11.20;99.90
35796;DHT22;21916;52.428;13.302;2023-05-10T01:39:24;11.10;99.90
35796;DHT22;21916;52.428;13.302;2023-05-10T01:41:55;11.10;99.90
35796;DHT22;21916;52.428;13.302;2023-05-10T01:44:46;11.00;99.90
35796;DHT22;21916;52.428;13.302;2023-05-10T01:47:27;11.10;99.90
35796;DHT22;21916;52.428;13.302;2023-05-10T01:49:56;11.00;99.90
35796;DHT22;21916;52.428;13.302;2023-05-10T01:52:28;11.00;99.90
35796;DHT22;21916;52.428;13.302;2023-05-10T01:55:01;11.00;99.90
35796;DHT22;21916;52.428;13.302;2023-05-10T01:57:34;10.80;99.90
35796;DHT22;21916;52.428;13.302;2023-05-10T02:00:02;10.90;99.90
35796;DHT22;21916;52.428;13.302;2023-05-10T02:02:45;10.90;99.90
35796;DHT22;21916;52.428;13.302;2023-05-10T02:05:13;10.80;99.90
35796;DHT22;21916;52.428;13.302;2023-05-10T02:07:41;10.80;99.90
35796;DHT22;21916;52.428;13.302;2023-05-10T02:10:09;10.80;99.90
35796;DHT22;21916;52.428;13.302;2023-05-10T02:12:37;10.80;99.90
35796;DHT22;21916;52.428;13.302;2023-05-10T02:15:06;10.80;99.90
35796;DHT22;21916;52.428;13.302;2023-05-10T02:17:33;10.70;99.90
35796;DHT22;21916;52.428;13.302;2023-05-10T02:20:01;10.70;99.90
35796;DHT22;21916;52.428;13.302;2023-05-10T02:22:28;10.70;99.90
35796;DHT22;21916;52.428;13.302;2023-05-10T02:24:56;10.70;99.90
35796;DHT22;21916;52.428;13.302;2023-05-10T02:27:24;10.70;99.90
35796;DHT22;21916;52.428;13.302;2023-05-10T02:29:51;10.60;99.90
35796;DHT22;21916;52.428;13.302;2023-05-10T02:32:18;10.50;99.90
35796;DHT22;21916;52.428;13.302;2023-05-10T02:34:45;10.50;99.90
35796;DHT22;21916;52.428;13.302;2023-05-10T02:37:18;10.50;99.90
35796;DHT22;21916;52.428;13.302;2023-05-10T02:39:47;10.50;99.90
35796;DHT22;21916;52.428;13.302;2023-05-10T02:42:17;10.50;99.90
35796;DHT22;21916;52.428;13.302;2023-05-10T02:44:47;10.50;99.90
35796;DHT22;21916;52.428;13.302;2023-05-10T02:47:14;10.40;99.90
35796;DHT22;21916;52.428;13.302;2023-05-10T02:49:40;10.40;99.90
35796;DHT22;21916;52.428;13.302;2023-05-10T02:52:08;10.40;99.90
35796;DHT22;21916;52.428;13.302;2023-05-10T02:54:44;10.40;99.90
35796;DHT22;21916;52.428;13.302;2023-05-10T02:57:15;10.30;99.90
35796;DHT22;21916;52.428;13.302;2023-05-10T02:59:45;10.30;99.90
35796;DHT22;21916;52.428;13.302;2023-05-10T03:02:12;10.30;99.90
35796;DHT22;21916;52.428;13.302;2023-05-10T03:04:38;10.20;99.90
35796;DHT22;21916;52.428;13.302;2023-05-10T03:07:04;10.20;99.90
35796;DHT22;21916;52.428;13.302;2023-05-10T03:09:31;10.10;99.90
35796;DHT22;21916;52.428;13.302;2023-05-10T03:12:07;10.00;99.90
35796;DHT22;21916;52.428;13.302;2023-05-10T03:17:45;10.00;99.90
35796;DHT22;21916;52.428;13.302;2023-05-10T03:20:10;9.90;99.90
35796;DHT22;21916;52.428;13.302;2023-05-10T03:22:44;10.00;99.90
35796;DHT22;21916;52.428;13.302;2023-05-10T03:25:11;10.00;99.90
35796;DHT22;21916;52.428;13.302;2023-05-10T03:27:41;10.00;99.90
35796;DHT22;21916;52.428;13.302;2023-05-10T03:30:09;10.00;99.90
35796;DHT22;21916;52.428;13.302;2023-05-10T03:32:36;9.90;99.90
35796;DHT22;21916;52.428;13.302;2023-05-10T03:35:12;9.90;99.90
35796;DHT22;21916;52.428;13.302;2023-05-10T03:37:41;9.90;99.90
35796;DHT22;21916;52.428;13.302;2023-05-10T03:40:08;9.80;99.90
35796;DHT22;21916;52.428;13.302;2023-05-10T03:42:36;9.90;99.90
35796;DHT22;21916;52.428;13.302;2023-05-10T03:45:02;9.90;99.90
35796;DHT22;21916;52.428;13.302;2023-05-10T03:47:29;9.90;99.90
35796;DHT22;21916;52.428;13.302;2023-05-10T03:49:55;9.90;99.90
35796;DHT22;21916;52.428;13.302;2023-05-10T03:52:22;9.90;99.90
35796;DHT22;21916;52.428;13.302;2023-05-10T03:54:48;9.90;99.90
35796;DHT22;21916;52.428;13.302;2023-05-10T03:57:14;9.90;99.90
35796;DHT22;21916;52.428;13.302;2023-05-10T03:59:40;9.90;99.90
35796;DHT22;21916;52.428;13.302;2023-05-10T04:02:06;9.90;99.90
35796;DHT22;21916;52.428;13.302;2023-05-10T04:04:32;9.90;99.90
35796;DHT22;21916;52.428;13.302;2023-05-10T04:06:58;9.90;99.90
35796;DHT22;21916;52.428;13.302;2023-05-10T04:09:24;9.90;99.90
35796;DHT22;21916;52.428;13.302;2023-05-10T04:11:49;10.00;99.90
35796;DHT22;21916;52.428;13.302;2023-05-10T04:14:15;10.00;99.90
35796;DHT22;21916;52.428;13.302;2023-05-10T04:16:42;10.00;99.90
35796;DHT22;21916;52.428;13.302;2023-05-10T04:19:08;10.10;99.90
35796;DHT22;21916;52.428;13.302;2023-05-10T04:21:34;10.10;99.90
35796;DHT22;21916;52.428;13.302;2023-05-10T04:23:59;10.20;99.90
35796;DHT22;21916;52.428;13.302;2023-05-10T04:26:25;10.30;99.90
35796;DHT22;21916;52.428;13.302;2023-05-10T04:28:51;10.30;99.90
35796;DHT22;21916;52.428;13.302;2023-05-10T04:31:17;10.40;99.90
35796;DHT22;21916;52.428;13.302;2023-05-10T04:33:43;10.40;99.90
35796;DHT22;21916;52.428;13.302;2023-05-10T04:36:09;10.50;99.90
35796;DHT22;21916;52.428;13.302;2023-05-10T04:38:35;10.60;99.90
35796;DHT22;21916;52.428;13.302;2023-05-10T04:41:07;10.70;99.90
35796;DHT22;21916;52.428;13.302;2023-05-10T04:43:34;10.70;99.90
35796;DHT22;21916;52.428;13.302;2023-05-10T04:46:00;10.70;99.90
35796;DHT22;21916;52.428;13.302;2023-05-10T04:48:26;10.80;99.90
35796;DHT22;21916;52.428;13.302;2023-05-10T04:50:52;10.90;99.90
35796;DHT22;21916;52.428;13.302;2023-05-10T04:53:18;11.00;99.90
35796;DHT22;21916;52.428;13.302;2023-05-10T04:55:44;11.10;99.90
35796;DHT22;21916;52.428;13.302;2023-05-10T04:58:10;11.20;99.90
35796;DHT22;21916;52.428;13.302;2023-05-10T05:00:36;11.20;99.90
35796;DHT22;21916;52.428;13.302;2023-05-10T05:03:02;11.30;99.90
35796;DHT22;21916;52.428;13.302;2023-05-10T05:05:28;11.40;99.90
35796;DHT22;21916;52.428;13.302;2023-05-10T05:07:54;11.40;99.90
35796;DHT22;21916;52.428;13.302;2023-05-10T05:10:20;11.60;99.90
35796;DHT22;21916;52.428;13.302;2023-05-10T05:12:46;11.60;99.90
35796;DHT22;21916;52.428;13.302;2023-05-10T05:15:11;11.70;99.90
35796;DHT22;21916;52.428;13.302;2023-05-10T05:17:37;11.90;99.90
35796;DHT22;21916;52.428;13.302;2023-05-10T05:20:03;12.00;99.90
35796;DHT22;21916;52.428;13.302;2023-05-10T05:22:30;12.00;99.90
35796;DHT22;21916;52.428;13.302;2023-05-10T05:24:57;12.10;99.90
35796;DHT22;21916;52.428;13.302;2023-05-10T05:27:24;12.20;99.90
35796;DHT22;21916;52.428;13.302;2023-05-10T05:29:55;12.20;99.90
35796;DHT22;21916;52.428;13.302;2023-05-10T05:32:22;12.40;99.90
35796;DHT22;21916;52.428;13.302;2023-05-10T05:34:48;12.50;99.90
35796;DHT22;21916;52.428;13.302;2023-05-10T05:37:15;12.50;99.90
35796;DHT22;21916;52.428;13.302;2023-05-10T05:39:41;12.60;99.90
35796;DHT22;21916;52.428;13.302;2023-05-10T05:42:08;12.70;99.90
35796;DHT22;21916;52.428;13.302;2023-05-10T05:44:35;12.70;99.90
35796;DHT22;21916;52.428;13.302;2023-05-10T05:47:00;12.80;99.90
35796;DHT22;21916;52.428;13.302;2023-05-10T05:49:26;12.90;99.90
35796;DHT22;21916;52.428;13.302;2023-05-10T05:51:52;12.90;99.90
35796;DHT22;21916;52.428;13.302;2023-05-10T05:54:18;12.90;99.90
35796;DHT22;21916;52.428;13.302;2023-05-10T05:56:44;13.00;99.90
35796;DHT22;21916;52.428;13.302;2023-05-10T05:59:10;13.10;99.90
35796;DHT22;21916;52.428;13.302;2023-05-10T06:01:37;13.30;99.90
35796;DHT22;21916;52.428;13.302;2023-05-10T06:04:03;13.40;99.90
35796;DHT22;21916;52.428;13.302;2023-05-10T06:06:29;13.40;99.90
35796;DHT22;21916;52.428;13.302;2023-05-10T06:08:55;13.50;99.90
35796;DHT22;21916;52.428;13.302;2023-05-10T06:11:21;13.60;99.90
35796;DHT22;21916;52.428;13.302;2023-05-10T06:13:47;13.70;99.90
35796;DHT22;21916;52.428;13.302;2023-05-10T06:16:13;13.70;99.90
35796;DHT22;21916;52.428;13.302;2023-05-10T06:18:39;13.80;99.90
35796;DHT22;21916;52.428;13.302;2023-05-10T06:21:05;13.90;99.90
35796;DHT22;21916;52.428;13.302;2023-05-10T06:23:31;14.00;99.90
35796;DHT22;21916;52.428;13.302;2023-05-10T06:25:57;14.00;99.90
35796;DHT22;21916;52.428;13.302;2023-05-10T06:28:22;14.10;99.90
35796;DHT22;21916;52.428;13.302;2023-05-10T06:30:48;14.10;99.90
35796;DHT22;21916;52.428;13.302;2023-05-10T06:33:14;14.20;99.90
35796;DHT22;21916;52.428;13.302;2023-05-10T06:35:42;14.30;99.90
35796;DHT22;21916;52.428;13.302;2023-05-10T06:38:08;14.50;99.90
35796;DHT22;21916;52.428;13.302;2023-05-10T06:40:34;14.50;99.50
35796;DHT22;21916;52.428;13.302;2023-05-10T06:42:59;14.50;99.40
35796;DHT22;21916;52.428;13.302;2023-05-10T06:45:25;14.50;99.30
35796;DHT22;21916;52.428;13.302;2023-05-10T06:47:51;14.50;99.60
35796;DHT22;21916;52.428;13.302;2023-05-10T06:50:17;14.60;99.40
35796;DHT22;21916;52.428;13.302;2023-05-10T06:52:43;14.70;99.20
35796;DHT22;21916;52.428;13.302;2023-05-10T06:55:09;14.80;99.30
35796;DHT22;21916;52.428;13.302;2023-05-10T06:57:35;14.80;99.00
35796;DHT22;21916;52.428;13.302;2023-05-10T07:00:02;14.90;99.00
35796;DHT22;21916;52.428;13.302;2023-05-10T07:02:29;15.00;98.90
35796;DHT22;21916;52.428;13.302;2023-05-10T07:04:55;15.10;98.80
35796;DHT22;21916;52.428;13.302;2023-05-10T07:07:21;15.10;98.60
35796;DHT22;21916;52.428;13.302;2023-05-10T07:09:48;15.20;98.60
35796;DHT22;21916;52.428;13.302;2023-05-10T07:12:15;15.30;98.50
35796;DHT22;21916;52.428;13.302;2023-05-10T07:14:41;15.30;98.30
35796;DHT22;21916;52.428;13.302;2023-05-10T07:17:07;15.40;98.30
35796;DHT22;21916;52.428;13.302;2023-05-10T07:19:33;15.60;98.10
35796;DHT22;21916;52.428;13.302;2023-05-10T07:21:59;15.70;97.20
35796;DHT22;21916;52.428;13.302;2023-05-10T07:24:25;15.70;97.20
35796;DHT22;21916;52.428;13.302;2023-05-10T07:26:51;15.70;97.00
35796;DHT22;21916;52.428;13.302;2023-05-10T07:29:17;15.70;97.30
35796;DHT22;21916;52.428;13.302;2023-05-10T07:31:43;15.80;96.90
35796;DHT22;21916;52.428;13.302;2023-05-10T07:34:09;15.90;96.90
35796;DHT22;21916;52.428;13.302;2023-05-10T07:36:35;16.10;97.00
35796;DHT22;21916;52.428;13.302;2023-05-10T07:39:01;16.20;96.70
35796;DHT22;21916;52.428;13.302;2023-05-10T07:41:27;16.20;96.30
35796;DHT22;21916;52.428;13.302;2023-05-10T07:43:53;16.30;96.30
35796;DHT22;21916;52.428;13.302;2023-05-10T07:46:19;16.40;95.90
35796;DHT22;21916;52.428;13.302;2023-05-10T07:48:45;16.40;96.10
35796;DHT22;21916;52.428;13.302;2023-05-10T07:51:11;16.50;95.60
35796;DHT22;21916;52.428;13.302;2023-05-10T07:53:38;16.50;95.90
35796;DHT22;21916;52.428;13.302;2023-05-10T07:56:24;16.60;95.60
35796;DHT22;21916;52.428;13.302;2023-05-10T07:58:52;16.70;95.90
35796;DHT22;21916;52.428;13.302;2023-05-10T08:01:17;16.80;95.80
35796;DHT22;21916;52.428;13.302;2023-05-10T08:03:43;16.80;95.50
35796;DHT22;21916;52.428;13.302;2023-05-10T08:06:09;16.80;95.60
35796;DHT22;21916;52.428;13.302;2023-05-10T08:08:35;16.80;95.20
35796;DHT22;21916;52.428;13.302;2023-05-10T08:11:01;16.80;95.60
35796;DHT22;21916;52.428;13.302;2023-05-10T08:13:28;16.80;95.50
35796;DHT22;21916;52.428;13.302;2023-05-10T08:15:53;17.00;95.70
35796;DHT22;21916;52.428;13.302;2023-05-10T08:18:19;17.20;95.60
35796;DHT22;21916;52.428;13.302;2023-05-10T08:20:45;17.40;95.00
35796;DHT22;21916;52.428;13.302;2023-05-10T08:23:15;17.50;95.00
35796;DHT22;21916;52.428;13.302;2023-05-10T08:25:41;17.70;95.00
35796;DHT22;21916;52.428;13.302;2023-05-10T08:28:08;17.80;94.60
35796;DHT22;21916;52.428;13.302;2023-05-10T08:30:34;17.90;94.40
35796;DHT22;21916;52.428;13.302;2023-05-10T08:33:01;18.10;94.20
35796;DHT22;21916;52.428;13.302;2023-05-10T08:35:26;18.20;94.10
35796;DHT22;21916;52.428;13.302;2023-05-10T08:37:52;18.40;94.50
35796;DHT22;21916;52.428;13.302;2023-05-10T08:40:19;18.40;93.70
35796;DHT22;21916;52.428;13.302;2023-05-10T08:42:54;18.40;93.50
35796;DHT22;21916;52.428;13.302;2023-05-10T08:45:23;18.20;93.40
35796;DHT22;21916;52.428;13.302;2023-05-10T08:47:50;18.30;93.20
35796;DHT22;21916;52.428;13.302;2023-05-10T08:50:20;18.30;93.80
35796;DHT22;21916;52.428;13.302;2023-05-10T08:52:48;18.50;92.90
35796;DHT22;21916;52.428;13.302;2023-05-10T08:55:16;18.70;93.00
35796;DHT22;21916;52.428;13.302;2023-05-10T08:57:42;18.80;92.70
35796;DHT22;21916;52.428;13.302;2023-05-10T09:00:08;18.90;92.70
35796;DHT22;21916;52.428;13.302;2023-05-10T09:02:37;19.00;92.40
35796;DHT22;21916;52.428;13.302;2023-05-10T09:05:03;19.10;92.60
35796;DHT22;21916;52.428;13.302;2023-05-10T09:07:30;19.20;92.00
35796;DHT22;21916;52.428;13.302;2023-05-10T09:09:56;19.30;92.10
35796;DHT22;21916;52.428;13.302;2023-05-10T09:12:23;19.20;91.70
35796;DHT22;21916;52.428;13.302;2023-05-10T09:14:50;19.30;91.60
35796;DHT22;21916;52.428;13.302;2023-05-10T09:17:17;19.40;91.30
35796;DHT22;21916;52.428;13.302;2023-05-10T09:19:45;19.50;91.40
35796;DHT22;21916;52.428;13.302;2023-05-10T09:22:11;19.50;91.30
35796;DHT22;21916;52.428;13.302;2023-05-10T09:24:37;19.60;90.90
35796;DHT22;21916;52.428;13.302;2023-05-10T09:27:08;19.60;90.90
35796;DHT22;21916;52.428;13.302;2023-05-10T09:29:44;19.70;90.80
35796;DHT22;21916;52.428;13.302;2023-05-10T09:32:10;19.60;91.20
35796;DHT22;21916;52.428;13.302;2023-05-10T09:34:36;19.80;91.00
35796;DHT22;21916;52.428;13.302;2023-05-10T09:37:05;19.80;90.80
35796;DHT22;21916;52.428;13.302;2023-05-10T09:39:35;19.90;90.90
35796;DHT22;21916;52.428;13.302;2023-05-10T09:42:06;20.10;90.40
35796;DHT22;21916;52.428;13.302;2023-05-10T09:44:34;20.10;89.80
35796;DHT22;21916;52.428;13.302;2023-05-10T09:47:01;20.00;90.00
35796;DHT22;21916;52.428;13.302;2023-05-10T09:49:27;20.00;90.40
35796;DHT22;21916;52.428;13.302;2023-05-10T09:52:03;20.00;90.90
35796;DHT22;21916;52.428;13.302;2023-05-10T09:54:30;20.00;90.30
35796;DHT22;21916;52.428;13.302;2023-05-10T09:56:56;20.10;90.70
35796;DHT22;21916;52.428;13.302;2023-05-10T09:59:25;20.40;90.80
35796;DHT22;21916;52.428;13.302;2023-05-10T10:01:53;20.70;89.10
35796;DHT22;21916;52.428;13.302;2023-05-10T10:04:22;20.70;89.30
35796;DHT22;21916;52.428;13.302;2023-05-10T10:07:02;20.80;89.90
35796;DHT22;21916;52.428;13.302;2023-05-10T10:09:28;20.90;88.10
35796;DHT22;21916;52.428;13.302;2023-05-10T10:11:54;20.80;88.60
35796;DHT22;21916;52.428;13.302;2023-05-10T10:14:22;21.10;89.00
35796;DHT22;21916;52.428;13.302;2023-05-10T10:16:50;21.30;88.60
35796;DHT22;21916;52.428;13.302;2023-05-10T10:19:20;21.50;87.30
35796;DHT22;21916;52.428;13.302;2023-05-10T10:21:48;21.70;87.50
35796;DHT22;21916;52.428;13.302;2023-05-10T10:24:14;21.80;85.90
35796;DHT22;21916;52.428;13.302;2023-05-10T10:26:42;21.80;86.00
35796;DHT22;21916;52.428;13.302;2023-05-10T10:35:30;22.60;84.20
35796;DHT22;21916;52.428;13.302;2023-05-10T10:37:58;22.90;83.50
35796;DHT22;21916;52.428;13.302;2023-05-10T10:40:33;23.20;82.30
35796;DHT22;21916;52.428;13.302;2023-05-10T10:45:44;23.90;81.40
35796;DHT22;21916;52.428;13.302;2023-05-10T10:48:21;25.10;79.90
35796;DHT22;21916;52.428;13.302;2023-05-10T10:50:47;26.00;75.70
35796;DHT22;21916;52.428;13.302;2023-05-10T10:53:19;27.20;75.40
35796;DHT22;21916;52.428;13.302;2023-05-10T10:55:48;27.60;72.30
35796;DHT22;21916;52.428;13.302;2023-05-10T10:58:31;28.50;69.70
35796;DHT22;21916;52.428;13.302;2023-05-10T11:01:15;28.90;65.80
35796;DHT22;21916;52.428;13.302;2023-05-10T11:04:40;28.80;65.10
35796;DHT22;21916;52.428;13.302;2023-05-10T11:09:12;31.10;60.70
35796;DHT22;21916;52.428;13.302;2023-05-10T11:11:54;32.30;58.40
35796;DHT22;21916;52.428;13.302;2023-05-10T11:14:22;31.40;56.50
35796;DHT22;21916;52.428;13.302;2023-05-10T11:16:48;31.20;57.20
35796;DHT22;21916;52.428;13.302;2023-05-10T11:19:15;31.40;56.60
35796;DHT22;21916;52.428;13.302;2023-05-10T11:24:18;32.80;55.90
35796;DHT22;21916;52.428;13.302;2023-05-10T11:26:44;33.80;54.70
35796;DHT22;21916;52.428;13.302;2023-05-10T11:29:13;34.10;53.60
35796;DHT22;21916;52.428;13.302;2023-05-10T11:31:46;33.40;51.90
35796;DHT22;21916;52.428;13.302;2023-05-10T11:34:26;33.10;52.80
35796;DHT22;21916;52.428;13.302;2023-05-10T11:36:55;33.90;51.70
35796;DHT22;21916;52.428;13.302;2023-05-10T11:39:28;34.60;50.90
35796;DHT22;21916;52.428;13.302;2023-05-10T11:41:55;34.60;50.40
35796;DHT22;21916;52.428;13.302;2023-05-10T11:44:21;34.70;50.00
35796;DHT22;21916;52.428;13.302;2023-05-10T11:46:47;34.80;49.30
35796;DHT22;21916;52.428;13.302;2023-05-10T11:49:14;34.30;48.60
35796;DHT22;21916;52.428;13.302;2023-05-10T11:51:40;33.10;49.60
35796;DHT22;21916;52.428;13.302;2023-05-10T11:54:09;32.30;49.50
35796;DHT22;21916;52.428;13.302;2023-05-10T11:56:37;31.80;50.00
35796;DHT22;21916;52.428;13.302;2023-05-10T11:59:03;32.70;50.30
35796;DHT22;21916;52.428;13.302;2023-05-10T12:01:30;33.80;50.10
35796;DHT22;21916;52.428;13.302;2023-05-10T12:03:57;34.30;49.10
35796;DHT22;21916;52.428;13.302;2023-05-10T12:06:28;35.20;48.10
35796;DHT22;21916;52.428;13.302;2023-05-10T12:08:55;35.80;47.50
35796;DHT22;21916;52.428;13.302;2023-05-10T12:11:25;35.10;46.30
35796;DHT22;21916;52.428;13.302;2023-05-10T12:13:51;33.50;47.40
35796;DHT22;21916;52.428;13.302;2023-05-10T12:18:44;32.80;47.70
35796;DHT22;21916;52.428;13.302;2023-05-10T12:21:14;32.00;49.10
35796;DHT22;21916;52.428;13.302;2023-05-10T12:23:41;32.90;48.80
35796;DHT22;21916;52.428;13.302;2023-05-10T12:26:09;32.60;48.20
35796;DHT22;21916;52.428;13.302;2023-05-10T12:28:36;32.40;48.70
35796;DHT22;21916;52.428;13.302;2023-05-10T12:31:02;32.90;48.20
35796;DHT22;21916;52.428;13.302;2023-05-10T12:33:36;32.90;48.50
35796;DHT22;21916;52.428;13.302;2023-05-10T12:36:05;34.30;47.10
35796;DHT22;21916;52.428;13.302;2023-05-10T12:38:36;34.30;46.80
35796;DHT22;21916;52.428;13.302;2023-05-10T12:41:08;33.80;46.30
35796;DHT22;21916;52.428;13.302;2023-05-10T12:43:35;34.10;46.50
35796;DHT22;21916;52.428;13.302;2023-05-10T12:46:09;35.40;47.60
35796;DHT22;21916;52.428;13.302;2023-05-10T12:48:36;35.90;45.90
35796;DHT22;21916;52.428;13.302;2023-05-10T12:51:04;34.20;46.70
35796;DHT22;21916;52.428;13.302;2023-05-10T12:53:30;35.00;46.70
35796;DHT22;21916;52.428;13.302;2023-05-10T12:55:57;36.70;46.50
35796;DHT22;21916;52.428;13.302;2023-05-10T12:58:23;37.70;45.60
35796;DHT22;21916;52.428;13.302;2023-05-10T13:00:49;34.80;44.80
35796;DHT22;21916;52.428;13.302;2023-05-10T13:03:17;33.60;46.80
35796;DHT22;21916;52.428;13.302;2023-05-10T13:05:43;34.90;46.00
35796;DHT22;21916;52.428;13.302;2023-05-10T13:08:09;34.70;45.40
35796;DHT22;21916;52.428;13.302;2023-05-10T13:10:35;33.30;46.00
35796;DHT22;21916;52.428;13.302;2023-05-10T13:13:01;33.40;46.30
35796;DHT22;21916;52.428;13.302;2023-05-10T13:15:27;34.30;46.40
35796;DHT22;21916;52.428;13.302;2023-05-10T13:17:53;35.30;45.30
35796;DHT22;21916;52.428;13.302;2023-05-10T13:20:20;33.90;45.90
35796;DHT22;21916;52.428;13.302;2023-05-10T13:22:46;34.90;45.90
35796;DHT22;21916;52.428;13.302;2023-05-10T13:25:13;36.40;45.00
35796;DHT22;21916;52.428;13.302;2023-05-10T13:27:39;36.90;44.20
35796;DHT22;21916;52.428;13.302;2023-05-10T13:30:07;35.90;44.70
35796;DHT22;21916;52.428;13.302;2023-05-10T13:32:33;36.40;44.40
35796;DHT22;21916;52.428;13.302;2023-05-10T13:35:00;37.20;44.30
35796;DHT22;21916;52.428;13.302;2023-05-10T13:37:26;36.70;44.00
35796;DHT22;21916;52.428;13.302;2023-05-10T13:39:52;36.70;43.80
35796;DHT22;21916;52.428;13.302;2023-05-10T13:42:18;37.80;44.10
35796;DHT22;21916;52.428;13.302;2023-05-10T13:44:44;39.10;43.10
35796;DHT22;21916;52.428;13.302;2023-05-10T13:47:10;39.10;43.40
35796;DHT22;21916;52.428;13.302;2023-05-10T13:49:36;39.20;42.60
35796;DHT22;21916;52.428;13.302;2023-05-10T13:52:04;39.00;42.20
35796;DHT22;21916;52.428;13.302;2023-05-10T13:54:41;38.60;42.80
35796;DHT22;21916;52.428;13.302;2023-05-10T13:57:07;37.90;42.00
35796;DHT22;21916;52.428;13.302;2023-05-10T13:59:34;38.20;42.00
35796;DHT22;21916;52.428;13.302;2023-05-10T14:02:00;38.20;41.80
35796;DHT22;21916;52.428;13.302;2023-05-10T14:04:28;37.80;42.00
35796;DHT22;21916;52.428;13.302;2023-05-10T14:06:54;36.70;41.90
35796;DHT22;21916;52.428;13.302;2023-05-10T14:09:20;37.30;42.80
35796;DHT22;21916;52.428;13.302;2023-05-10T14:11:46;38.40;41.30
35796;DHT22;21916;52.428;13.302;2023-05-10T14:14:12;36.70;41.90
35796;DHT22;21916;52.428;13.302;2023-05-10T14:16:42;36.00;42.00
35796;DHT22;21916;52.428;13.302;2023-05-10T14:19:09;35.40;42.60
35796;DHT22;21916;52.428;13.302;2023-05-10T14:21:35;33.70;42.80
35796;DHT22;21916;52.428;13.302;2023-05-10T14:24:01;32.90;44.00
35796;DHT22;21916;52.428;13.302;2023-05-10T14:26:27;34.10;44.10
35796;DHT22;21916;52.428;13.302;2023-05-10T14:28:53;35.40;42.80
35796;DHT22;21916;52.428;13.302;2023-05-10T14:31:19;36.40;42.20
35796;DHT22;21916;52.428;13.302;2023-05-10T14:33:50;35.20;42.70
35796;DHT22;21916;52.428;13.302;2023-05-10T14:36:15;33.20;42.90
35796;DHT22;21916;52.428;13.302;2023-05-10T14:38:41;31.20;44.50
35796;DHT22;21916;52.428;13.302;2023-05-10T14:41:07;30.50;45.20
35796;DHT22;21916;52.428;13.302;2023-05-10T14:43:34;29.60;46.00
35796;DHT22;21916;52.428;13.302;2023-05-10T14:46:00;28.90;46.90
35796;DHT22;21916;52.428;13.302;2023-05-10T14:48:25;29.20;45.90
35796;DHT22;21916;52.428;13.302;2023-05-10T14:50:51;30.00;46.70
35796;DHT22;21916;52.428;13.302;2023-05-10T14:53:18;30.50;45.80
35796;DHT22;21916;52.428;13.302;2023-05-10T14:55:44;30.40;45.40
35796;DHT22;21916;52.428;13.302;2023-05-10T14:58:10;29.70;45.80
35796;DHT22;21916;52.428;13.302;2023-05-10T15:00:36;30.20;46.50
35796;DHT22;21916;52.428;13.302;2023-05-10T15:03:02;31.30;46.00
35796;DHT22;21916;52.428;13.302;2023-05-10T15:05:29;32.20;45.20
35796;DHT22;21916;52.428;13.302;2023-05-10T15:07:54;32.70;45.00
35796;DHT22;21916;52.428;13.302;2023-05-10T15:10:21;32.00;45.20
35796;DHT22;21916;52.428;13.302;2023-05-10T15:12:47;31.10;45.40
35796;DHT22;21916;52.428;13.302;2023-05-10T15:15:13;30.80;46.70
35796;DHT22;21916;52.428;13.302;2023-05-10T15:17:38;30.90;46.30
35796;DHT22;21916;52.428;13.302;2023-05-10T15:20:05;30.80;46.50
35796;DHT22;21916;52.428;13.302;2023-05-10T15:22:31;30.20;47.50
35796;DHT22;21916;52.428;13.302;2023-05-10T15:24:58;29.50;48.40
35796;DHT22;21916;52.428;13.302;2023-05-10T15:27:25;30.00;47.50
35796;DHT22;21916;52.428;13.302;2023-05-10T15:29:53;29.70;47.70
35796;DHT22;21916;52.428;13.302;2023-05-10T15:32:19;29.90;47.70
35796;DHT22;21916;52.428;13.302;2023-05-10T15:34:46;29.80;47.40
35796;DHT22;21916;52.428;13.302;2023-05-10T15:37:12;29.40;48.00
35796;DHT22;21916;52.428;13.302;2023-05-10T15:39:38;29.70;47.80
35796;DHT22;21916;52.428;13.302;2023-05-10T15:42:04;29.30;47.70
35796;DHT22;21916;52.428;13.302;2023-05-10T15:44:29;28.20;48.90
35796;DHT22;21916;52.428;13.302;2023-05-10T15:46:55;27.70;49.40
35796;DHT22;21916;52.428;13.302;2023-05-10T15:49:21;27.10;50.50
35796;DHT22;21916;52.428;13.302;2023-05-10T15:51:47;26.70;51.10